Time;durP1;ratioP1;P1;durP2;ratioP2;P2;SDS_P1;SDS_P2;PMS_P1;PMS_P2;Temp;Humidity;BMP_temperature;BMP_pressure;BME280_temperature;BME280_humidity;BME280_pressure;Samples;Min_cycle;Max_cycle;Signal;HPM_P1;HPM_P2
2021/04/26 05:38:59;;;;;;;33.92;3.22;;;;;;;22.33;45.12;98444.97;5099821;27;20566;-54
2021/04/26 05:41:26;;;;;;;27.50;3.15;;;;;;;22.32;45.08;98452.13;5098406;28;21417;-56
2021/04/26 05:43:52;;;;;;;24.83;3.13;;;;;;;22.33;45.08;98444.97;5092154;28;20226;-57
2021/04/26 05:46:18;;;;;;;18.80;2.88;;;;;;;22.33;44.86;98448.50;5075044;28;20440;-57
2021/04/26 05:48:44;;;;;;;16.75;2.67;;;;;;;22.33;44.24;98444.97;5082425;28;20549;-61
2021/04/26 05:51:10;;;;;;;15.07;2.50;;;;;;;22.33;44.50;98442.31;5088840;28;20274;-60
2021/04/26 05:53:37;;;;;;;19.33;2.50;;;;;;;22.37;44.59;98443.69;5083111;28;20217;-62
2021/04/26 05:56:04;;;;;;;12.95;1.95;;;;;;;22.39;44.54;98451.50;5092034;28;20296;-59
2021/04/26 05:58:30;;;;;;;9.80;2.22;;;;;;;22.40;44.32;98443.38;5082336;28;20266;-54
2021/04/26 06:00:57;;;;;;;19.98;2.67;;;;;;;22.44;43.89;98455.34;5080980;28;20202;-57
2021/04/26 06:03:23;;;;;;;16.08;1.95;;;;;;;22.44;43.89;98454.53;5076470;28;20331;-59
2021/04/26 06:05:49;;;;;;;9.68;2.00;;;;;;;22.44;43.88;98455.34;5086049;28;20329;-59
2021/04/26 06:08:16;;;;;;;12.18;2.20;;;;;;;22.46;43.35;98450.69;5080254;28;20198;-58
2021/04/26 06:10:42;;;;;;;12.48;2.10;;;;;;;22.48;44.16;98451.41;5084570;28;20194;-56
2021/04/26 06:13:09;;;;;;;15.13;1.95;;;;;;;22.50;43.68;98452.06;5078988;28;20679;-53
2021/04/26 06:15:35;;;;;;;17.10;2.45;;;;;;;22.49;43.72;98452.22;5081476;28;20323;-59
2021/04/26 06:18:09;;;;;;;15.90;2.15;;;;;;;22.51;44.23;98453.72;5079426;28;20225;-55
2021/04/26 06:20:35;;;;;;;22.02;2.50;;;;;;;22.53;45.40;98459.72;5078719;28;20202;-57
2021/04/26 06:23:01;;;;;;;19.38;2.85;;;;;;;22.52;43.51;98455.38;5078693;28;20221;-56
2021/04/26 06:25:28;;;;;;;10.32;2.00;;;;;;;22.61;44.01;98461.56;5078200;28;20285;-62
2021/04/26 06:27:54;;;;;;;11.35;2.22;;;;;;;22.66;43.52;98461.09;5078665;28;20388;-63
2021/04/26 06:30:21;;;;;;;10.38;2.33;;;;;;;22.65;43.38;98456.75;5084566;28;20300;-61
2021/04/26 06:32:47;;;;;;;9.52;1.90;;;;;;;22.66;43.81;98456.59;5083240;28;20309;-62
2021/04/26 06:35:13;;;;;;;7.50;1.90;;;;;;;22.69;43.18;98460.78;5077477;28;20210;-57
2021/04/26 06:37:39;;;;;;;7.88;1.73;;;;;;;22.68;42.54;98464.44;5079798;28;20226;-62
2021/04/26 06:40:07;;;;;;;9.00;2.05;;;;;;;22.67;42.46;98455.63;5077881;28;20360;-61
2021/04/26 06:42:33;;;;;;;8.55;2.00;;;;;;;22.70;42.38;98465.13;5080228;28;20705;-62
2021/04/26 06:44:59;;;;;;;12.85;2.33;;;;;;;22.73;41.71;98456.78;5077617;28;20293;-60
2021/04/26 06:47:26;;;;;;;8.50;1.65;;;;;;;22.81;42.56;98456.81;5088037;28;20194;-59
2021/04/26 06:49:52;;;;;;;8.40;2.10;;;;;;;22.88;42.52;98455.19;5072667;28;20251;-63
2021/04/26 06:52:18;;;;;;;5.93;1.27;;;;;;;22.94;42.84;98461.69;5066779;28;20285;-63
2021/04/26 06:54:46;;;;;;;6.90;2.05;;;;;;;22.97;43.06;98460.53;5066420;28;20325;-62
2021/04/26 06:57:12;;;;;;;8.80;2.08;;;;;;;22.99;43.11;98453.22;5064409;28;20299;-61
2021/04/26 06:59:39;;;;;;;7.40;1.80;;;;;;;23.00;42.86;98457.53;5064127;28;20207;-60
2021/04/26 07:02:05;;;;;;;8.60;2.13;;;;;;;22.99;42.23;98453.22;5065497;28;20325;-62
2021/04/26 07:04:32;;;;;;;8.30;1.88;;;;;;;22.92;42.47;98448.53;5063762;28;20887;-62
2021/04/26 07:06:58;;;;;;;8.57;1.90;;;;;;;22.94;41.82;98455.53;5068591;28;20285;-61
2021/04/26 07:09:24;;;;;;;5.40;1.77;;;;;;;22.91;41.13;98454.00;5069179;28;20694;-61
2021/04/26 07:11:50;;;;;;;4.80;1.75;;;;;;;22.84;39.58;98455.66;5071559;28;20581;-60
2021/04/26 07:14:16;;;;;;;7.18;2.00;;;;;;;22.85;40.68;98452.84;5068196;28;20729;-59
2021/04/26 07:16:43;;;;;;;9.15;1.83;;;;;;;22.85;39.60;98455.50;5063768;28;20203;-61
2021/04/26 07:19:09;;;;;;;9.27;2.33;;;;;;;22.86;40.31;98449.16;5066599;28;20285;-59
2021/04/26 07:21:36;;;;;;;5.82;1.63;;;;;;;22.87;40.92;98440.19;5064608;28;20579;-60
2021/04/26 07:24:02;;;;;;;4.15;1.65;;;;;;;22.90;40.80;98445.19;5064394;28;20313;-60
2021/04/26 07:26:28;;;;;;;5.35;1.65;;;;;;;22.90;41.37;98439.03;5070344;28;20211;-53
2021/04/26 07:28:54;;;;;;;7.38;1.70;;;;;;;22.89;41.47;98429.34;5066747;28;20198;-59
2021/04/26 07:31:21;;;;;;;6.93;1.75;;;;;;;22.88;41.42;98436.53;5073547;28;20218;-59
2021/04/26 07:33:47;;;;;;;5.85;1.80;;;;;;;22.87;42.03;98426.84;5064520;28;20238;-58
2021/04/26 07:36:13;;;;;;;5.35;1.83;;;;;;;22.86;41.87;98425.19;5066775;28;20214;-57
2021/04/26 07:38:40;;;;;;;7.72;1.92;;;;;;;22.85;41.40;98423.53;5069495;28;20258;-60
2021/04/26 07:41:07;;;;;;;4.72;1.70;;;;;;;22.84;42.51;98429.03;5068808;28;20649;-58
2021/04/26 07:43:33;;;;;;;8.50;1.95;;;;;;;22.85;42.21;98420.88;5066463;28;20218;-61
2021/04/26 07:45:59;;;;;;;6.60;1.70;;;;;;;22.86;42.16;98422.50;5063267;28;20233;-63
2021/04/26 07:48:25;;;;;;;8.85;2.00;;;;;;;22.85;42.84;98422.69;5069684;28;20233;-60
2021/04/26 07:50:52;;;;;;;15.65;1.90;;;;;;;22.84;42.65;98423.69;5063705;28;20690;-61
2021/04/26 07:53:18;;;;;;;7.45;1.65;;;;;;;22.83;42.98;98420.19;5067918;28;20393;-61
2021/04/26 07:55:45;;;;;;;7.55;1.58;;;;;;;22.84;42.35;98416.50;5071644;28;20682;-59
2021/04/26 07:58:11;;;;;;;10.18;2.00;;;;;;;22.86;42.46;98417.19;5064510;28;20218;-60
2021/04/26 08:00:37;;;;;;;11.15;1.90;;;;;;;22.88;43.00;98417.88;5062645;28;20567;-58
2021/04/26 08:03:04;;;;;;;11.73;2.00;;;;;;;22.91;42.48;98411.38;5065013;28;20600;-60
2021/04/26 08:05:30;;;;;;;12.75;2.10;;;;;;;22.92;43.04;98402.38;5070557;28;20824;-59
2021/04/26 08:07:57;;;;;;;9.10;2.30;;;;;;;22.96;42.31;98406.38;5070560;28;20198;-61
2021/04/26 08:10:23;;;;;;;7.32;2.05;;;;;;;22.96;43.05;98405.53;5068724;28;20289;-56
2021/04/26 08:12:50;;;;;;;12.63;1.70;;;;;;;22.98;42.56;98406.22;5062571;28;20321;-55
2021/04/26 08:15:16;;;;;;;7.55;2.00;;;;;;;23.00;42.93;98401.53;5063296;28;20225;-61
2021/04/26 08:17:42;;;;;;;3.60;1.60;;;;;;;22.99;42.86;98398.06;5064850;28;20224;-61
2021/04/26 08:20:09;;;;;;;9.15;2.00;;;;;;;23.02;43.68;98395.06;5070712;28;20230;-59
2021/04/26 08:22:35;;;;;;;7.78;2.10;;;;;;;23.04;43.45;98397.56;5063165;28;20203;-60
2021/04/26 08:25:02;;;;;;;12.43;2.33;;;;;;;23.04;43.52;98394.91;5064895;28;20251;-62
2021/04/26 08:27:28;;;;;;;6.55;1.83;;;;;;;23.06;43.11;98385.75;5062594;28;20297;-59
2021/04/26 08:29:55;;;;;;;5.72;1.63;;;;;;;23.08;42.95;98385.59;5063488;28;20213;-62
2021/04/26 08:32:21;;;;;;;4.93;1.70;;;;;;;23.10;43.17;98380.94;5061106;28;20954;-61
2021/04/26 08:34:47;;;;;;;7.80;1.77;;;;;;;23.11;42.78;98381.78;5066498;28;20322;-60
2021/04/26 08:37:13;;;;;;;5.30;1.50;;;;;;;23.12;43.53;98386.94;5068841;28;20759;-61
2021/04/26 08:39:40;;;;;;;4.85;1.70;;;;;;;23.14;43.61;98390.25;5071069;28;20257;-64
2021/04/26 08:42:06;;;;;;;5.07;1.48;;;;;;;23.14;43.40;98381.44;5071737;28;20195;-58
2021/04/26 08:44:33;;;;;;;11.35;1.55;;;;;;;23.17;43.28;98376.59;5060400;28;20361;-61
2021/04/26 08:47:00;;;;;;;7.45;1.73;;;;;;;23.19;43.50;98381.78;5062524;28;20315;-58
2021/04/26 08:49:26;;;;;;;6.60;1.48;;;;;;;23.19;42.62;98377.25;5062442;28;20714;-62
2021/04/26 08:51:53;;;;;;;3.10;1.50;;;;;;;23.19;43.31;98376.44;5074839;28;20282;-58
2021/04/26 08:54:19;;;;;;;5.10;1.30;;;;;;;23.21;43.17;98369.09;5063911;28;20236;-50
2021/04/26 08:56:46;;;;;;;6.88;1.65;;;;;;;23.21;43.11;98369.09;5069661;28;20285;-57
2021/04/26 08:59:13;;;;;;;10.95;2.05;;;;;;;23.25;43.14;98365.13;5067098;28;20226;-53
2021/04/26 09:01:39;;;;;;;9.10;1.63;;;;;;;23.22;43.93;98382.28;5066772;28;20203;-61
2021/04/26 09:04:09;;;;;;;6.20;1.50;;;;;;;23.19;43.16;98379.94;5071485;28;20326;-58
2021/04/26 09:06:52;;;;;;;7.50;2.00;;;;;;;23.19;43.63;98390.59;5070406;28;20281;-59
2021/04/26 09:09:35;;;;;;;6.80;1.65;;;;;;;23.19;43.64;98369.25;5064684;28;20287;-62
2021/04/26 09:12:02;;;;;;;5.72;1.80;;;;;;;23.19;43.03;98363.94;5063053;28;20244;-60
2021/04/26 09:14:42;;;;;;;4.65;1.35;;;;;;;23.20;43.04;98362.94;5069085;28;20213;-62
2021/04/26 09:17:29;;;;;;;6.10;1.10;;;;;;;23.21;43.52;98364.59;5066452;28;20234;-62
2021/04/26 09:19:58;;;;;;;10.45;1.27;;;;;;;23.22;43.98;98352.09;5063508;28;20264;-58
2021/04/26 09:22:45;;;;;;;7.15;1.20;;;;;;;23.23;43.58;98365.28;5067266;28;20202;-61
2021/04/26 09:25:32;;;;;;;5.35;1.45;;;;;;;23.25;43.10;98365.13;5063743;28;20203;-61
2021/04/26 09:28:04;;;;;;;3.45;1.20;;;;;;;23.28;43.59;98356.75;5062452;28;20259;-61
2021/04/26 09:30:42;;;;;;;6.30;1.40;;;;;;;23.25;43.59;98352.59;5062744;28;20207;-61
2021/04/26 09:33:16;;;;;;;4.53;1.40;;;;;;;23.25;43.31;98357.94;5063991;28;20238;-62
2021/04/26 09:35:44;;;;;;;4.70;1.40;;;;;;;23.25;43.76;98354.44;5062160;28;20226;-60
2021/04/26 09:38:28;;;;;;;2.65;1.30;;;;;;;23.25;44.21;98344.59;5067165;28;20309;-60
2021/04/26 09:41:12;;;;;;;4.60;1.30;;;;;;;23.28;43.57;98343.41;5063060;28;20199;-61
2021/04/26 09:43:38;;;;;;;2.65;1.40;;;;;;;23.27;43.80;98342.59;5059541;28;20444;-59
2021/04/26 09:46:05;;;;;;;6.03;1.40;;;;;;;23.30;43.89;98337.91;5064770;28;20295;-61
2021/04/26 09:48:32;;;;;;;6.10;1.30;;;;;;;23.28;44.04;98338.94;5062785;28;20613;-60
2021/04/26 09:51:01;;;;;;;5.10;1.30;;;;;;;23.32;44.20;98331.44;5066484;28;20198;-61
2021/04/26 09:53:29;;;;;;;3.33;1.38;;;;;;;23.31;43.58;98340.41;5066411;28;20276;-59
2021/04/26 09:55:56;;;;;;;3.60;1.05;;;;;;;23.32;43.12;98341.28;5059493;28;20199;-58
2021/04/26 09:58:23;;;;;;;4.90;1.17;;;;;;;23.34;43.56;98341.94;5063849;28;20329;-59
2021/04/26 10:00:51;;;;;;;4.53;1.10;;;;;;;23.35;43.04;98335.56;5064746;28;20213;-62
2021/04/26 10:03:18;;;;;;;3.38;1.05;;;;;;;23.33;43.10;98341.09;5061621;28;20239;-59
2021/04/26 10:05:46;;;;;;;1.70;0.93;;;;;;;23.38;43.53;98338.75;5064871;28;20199;-59
2021/04/26 10:08:14;;;;;;;4.88;1.10;;;;;;;23.35;43.78;98330.22;5062505;28;20203;-57
2021/04/26 10:10:41;;;;;;;4.63;1.38;;;;;;;23.32;44.63;98325.25;5068632;28;20301;-61
2021/04/26 10:13:07;;;;;;;3.78;1.40;;;;;;;23.33;43.90;98332.25;5065129;28;20219;-59
2021/04/26 10:15:34;;;;;;;4.10;1.15;;;;;;;23.36;43.40;98327.41;5067874;28;20579;-58
2021/04/26 10:18:03;;;;;;;6.07;1.13;;;;;;;23.36;43.90;98315.91;5066930;28;20237;-57
2021/04/26 10:20:34;;;;;;;5.43;1.20;;;;;;;23.43;44.43;98323.06;5066744;28;20254;-66
2021/04/26 10:23:00;;;;;;;6.85;1.13;;;;;;;23.40;43.49;98327.94;5064441;28;20654;-60
2021/04/26 10:25:39;;;;;;;4.15;1.00;;;;;;;23.41;43.33;98319.72;5071409;28;20279;-58
2021/04/26 10:28:31;;;;;;;5.53;1.05;;;;;;;23.45;44.63;98309.56;5068368;28;20277;-60
2021/04/26 10:31:05;;;;;;;3.40;1.08;;;;;;;23.46;43.22;98305.88;5071656;28;20220;-54
2021/04/26 10:34:06;;;;;;;2.85;1.08;;;;;;;23.50;44.10;98299.22;5065996;28;20230;-58
2021/04/26 10:36:45;;;;;;;2.60;0.85;;;;;;;23.53;43.45;98306.88;5064477;28;20297;-58
2021/04/26 10:39:13;;;;;;;3.58;1.00;;;;;;;23.57;44.00;98297.53;5074844;28;20217;-60
2021/04/26 10:42:11;;;;;;;2.35;0.88;;;;;;;23.59;43.80;98298.19;5064140;28;20352;-58
2021/04/26 10:44:51;;;;;;;7.15;1.60;;;;;;;23.66;44.22;98293.00;5063901;28;20309;-61
2021/04/26 10:47:36;;;;;;;3.47;1.20;;;;;;;23.54;43.00;98289.84;5062139;28;20203;-60
2021/04/26 10:50:36;;;;;;;4.28;0.95;;;;;;;23.44;42.96;98299.88;5064102;28;20203;-63
2021/04/26 10:53:04;;;;;;;3.08;1.02;;;;;;;23.30;42.26;98284.56;5065940;28;20724;-63
2021/04/26 10:55:45;;;;;;;3.42;1.20;;;;;;;23.22;41.35;98269.44;5065337;28;20203;-60
2021/04/26 10:58:36;;;;;;;4.63;1.27;;;;;;;23.17;42.03;98280.59;5065227;28;20214;-60
2021/04/26 11:01:03;;;;;;;4.45;1.55;;;;;;;23.17;41.17;98275.25;5066003;28;20567;-60
2021/04/26 11:03:36;;;;;;;5.03;1.20;;;;;;;23.14;41.96;98278.25;5067138;28;20254;-62
2021/04/26 11:06:15;;;;;;;2.15;1.17;;;;;;;23.05;41.96;98269.41;5067880;28;20307;-61
2021/04/26 11:08:45;;;;;;;4.70;1.67;;;;;;;23.02;41.03;98271.59;5065061;28;20580;-62
2021/04/26 11:11:15;;;;;;;4.78;1.52;;;;;;;22.99;41.25;98258.59;5066702;28;20289;-58
2021/04/26 11:13:50;;;;;;;3.30;1.42;;;;;;;23.01;41.38;98259.25;5062745;28;20700;-60
2021/04/26 11:16:18;;;;;;;6.85;2.72;;;;;;;22.58;35.89;98251.41;5065559;28;20190;-63
2021/04/26 11:19:01;;;;;;;6.00;2.15;;;;;;;22.58;37.15;98240.75;5068521;28;20311;-63
2021/04/26 11:21:52;;;;;;;3.97;2.15;;;;;;;22.65;35.95;98232.94;5066038;28;20604;-63
2021/04/26 11:24:49;;;;;;;12.00;2.17;;;;;;;22.75;37.48;98228.28;5065652;28;20861;-65
2021/04/26 11:27:23;;;;;;;10.00;2.30;;;;;;;22.77;37.49;98226.28;5069005;28;20281;-59
2021/04/26 11:30:22;;;;;;;5.13;2.08;;;;;;;22.86;39.69;98211.94;5072604;28;20205;-63
2021/04/26 11:33:06;;;;;;;7.20;1.73;;;;;;;22.91;38.82;98203.44;5040356;28;20222;-62
2021/04/26 11:35:34;;;;;;;6.03;1.70;;;;;;;22.91;39.44;98204.28;5070028;28;20324;-60
2021/04/26 11:38:01;;;;;;;3.95;1.52;;;;;;;22.95;40.53;98201.28;5068127;28;20798;-60
2021/04/26 11:40:29;;;;;;;8.55;1.70;;;;;;;23.00;39.85;98205.09;5072138;28;20204;-60
2021/04/26 11:43:05;;;;;;;4.43;1.40;;;;;;;23.02;39.96;98202.28;5069088;28;20733;-62
2021/04/26 11:45:33;;;;;;;7.07;1.83;;;;;;;23.05;40.61;98193.94;5067205;28;20212;-61
2021/04/26 11:47:59;;;;;;;3.75;1.40;;;;;;;23.07;40.00;98192.78;5071188;28;20276;-62
2021/04/26 11:50:25;;;;;;;7.35;1.90;;;;;;;23.11;40.96;98179.13;5064010;28;20342;-59
2021/04/26 11:52:52;;;;;;;5.38;1.75;;;;;;;23.13;40.17;98172.59;5064421;28;20226;-61
2021/04/26 11:55:20;;;;;;;4.15;1.45;;;;;;;23.13;41.03;98177.09;5069223;28;20213;-61
2021/04/26 11:57:48;;;;;;;5.47;1.40;;;;;;;23.15;40.89;98170.63;5069755;28;20230;-59
2021/04/26 12:00:17;;;;;;;3.22;1.40;;;;;;;23.17;41.49;98157.94;5069218;28;20608;-62
2021/04/26 12:02:48;;;;;;;6.35;1.65;;;;;;;23.19;40.89;98158.59;5072257;28;20234;-60
2021/04/26 12:05:18;;;;;;;4.13;1.35;;;;;;;23.18;41.41;98154.28;5065613;28;20198;-59
2021/04/26 12:07:45;;;;;;;2.30;1.20;;;;;;;23.20;40.92;98144.25;5069959;28;20218;-64
2021/04/26 12:10:14;;;;;;;6.22;1.60;;;;;;;23.21;40.91;98143.22;5064600;28;20249;-63
2021/04/26 12:12:43;;;;;;;4.18;1.63;;;;;;;23.21;40.95;98142.41;5068996;28;20287;-63
2021/04/26 12:15:12;;;;;;;3.47;1.20;;;;;;;23.22;41.79;98134.25;5068293;28;20752;-63
2021/04/26 12:17:39;;;;;;;3.30;1.23;;;;;;;23.21;41.11;98123.75;5065464;28;20268;-63
2021/04/26 12:20:14;;;;;;;4.60;1.30;;;;;;;23.23;41.23;98140.41;5063242;28;20644;-62
2021/04/26 12:22:41;;;;;;;6.80;1.30;;;;;;;23.25;41.73;98133.91;5068061;28;20198;-57
2021/04/26 12:25:10;;;;;;;12.10;1.77;;;;;;;23.26;41.55;98127.56;5063204;28;20305;-62
2021/04/26 12:27:36;;;;;;;4.28;1.45;;;;;;;23.24;41.84;98118.06;5060606;28;20234;-67
2021/04/26 12:30:17;;;;;;;3.33;1.20;;;;;;;23.27;41.62;98115.06;5056921;28;20264;-64
2021/04/26 12:32:45;;;;;;;6.95;1.10;;;;;;;23.23;41.25;98105.72;5060991;28;20289;-63
2021/04/26 12:35:13;;;;;;;8.05;1.65;;;;;;;23.24;41.92;98104.72;5063547;28;20211;-63
2021/04/26 12:37:42;;;;;;;7.75;1.85;;;;;;;23.21;41.62;98089.91;5064059;28;20315;-65
2021/04/26 12:40:15;;;;;;;9.13;2.58;;;;;;;23.23;42.53;98097.72;5062716;28;20272;-61
2021/04/26 12:42:42;;;;;;;8.50;2.92;;;;;;;23.23;41.97;98098.56;5067547;28;20297;-61
2021/04/26 12:45:10;;;;;;;13.60;4.57;;;;;;;23.25;42.20;98091.22;5062092;28;20218;-60
2021/04/26 12:47:54;;;;;;;17.50;5.47;;;;;;;23.27;41.82;98089.22;5067717;28;20683;-60
2021/04/26 12:50:27;;;;;;;22.15;6.82;;;;;;;23.27;41.65;98089.22;5065938;28;20245;-62
2021/04/26 12:53:08;;;;;;;22.00;6.70;;;;;;;23.26;42.71;98076.91;5062877;28;20325;-61
2021/04/26 12:55:35;;;;;;;17.27;5.80;;;;;;;23.27;42.56;98075.88;5060048;28;20260;-63
2021/04/26 12:58:07;;;;;;;18.30;5.88;;;;;;;23.28;41.95;98077.56;5062344;28;20230;-65
2021/04/26 13:00:39;;;;;;;18.70;5.85;;;;;;;23.28;42.35;98064.22;5060142;28;20294;-63
2021/04/26 13:03:27;;;;;;;13.07;5.72;;;;;;;23.28;41.74;98058.88;5071230;28;20254;-64
2021/04/26 13:05:55;;;;;;;14.65;5.10;;;;;;;23.28;42.10;98052.69;5062770;28;20214;-61
2021/04/26 13:08:22;;;;;;;19.13;5.35;;;;;;;23.28;41.60;98047.38;5063533;28;20321;-66
2021/04/26 13:10:50;;;;;;;10.82;4.20;;;;;;;23.32;41.71;98050.53;5071136;28;20253;-65
2021/04/26 13:13:16;;;;;;;11.02;4.68;;;;;;;23.28;42.12;98048.22;5066892;28;20237;-65
2021/04/26 13:15:43;;;;;;;16.80;4.95;;;;;;;23.27;42.40;98038.53;5063470;28;20667;-63
2021/04/26 13:18:11;;;;;;;12.38;4.45;;;;;;;23.28;42.75;98036.69;5063950;28;20250;-64
2021/04/26 13:20:37;;;;;;;14.35;4.15;;;;;;;23.25;42.67;98029.06;5063347;28;20265;-61
2021/04/26 13:23:18;;;;;;;12.65;4.25;;;;;;;23.28;42.89;98026.03;5064112;28;20766;-63
2021/04/26 13:25:45;;;;;;;10.93;4.00;;;;;;;23.27;42.80;98024.38;5064682;28;20701;-61
2021/04/26 13:28:24;;;;;;;21.48;5.15;;;;;;;23.28;42.85;98024.22;5064920;28;20202;-65
2021/04/26 13:30:51;;;;;;;13.32;3.30;;;;;;;23.24;41.31;98011.41;5055323;28;20222;-62
2021/04/26 13:33:17;;;;;;;13.45;3.40;;;;;;;23.21;42.39;98003.75;5061116;28;20765;-65
2021/04/26 13:35:44;;;;;;;16.50;4.68;;;;;;;23.21;42.71;97999.22;5064861;28;20229;-64
2021/04/26 13:38:10;;;;;;;13.77;4.30;;;;;;;23.23;41.82;97994.56;5069779;28;20233;-60
2021/04/26 13:40:38;;;;;;;14.88;3.90;;;;;;;23.25;42.33;97992.56;5065382;28;20310;-57
2021/04/26 13:43:04;;;;;;;11.68;3.35;;;;;;;23.23;42.59;97986.56;5065336;28;20246;-60
2021/04/26 13:45:30;;;;;;;19.00;4.47;;;;;;;23.19;43.02;97979.91;5071353;28;20297;-58
2021/04/26 13:47:56;;;;;;;13.43;3.55;;;;;;;23.19;42.80;97984.44;5068663;28;20313;-60
2021/04/26 13:50:24;;;;;;;9.68;2.80;;;;;;;23.17;42.82;97976.59;5065037;28;20501;-59
2021/04/26 13:52:50;;;;;;;11.25;2.67;;;;;;;23.16;42.86;97971.44;5066278;28;20214;-62
2021/04/26 13:55:17;;;;;;;14.48;2.88;;;;;;;23.15;42.28;97973.28;5058619;28;20758;-62
2021/04/26 13:57:44;;;;;;;6.78;2.92;;;;;;;23.11;42.34;97961.31;5067828;28;20222;-65
2021/04/26 14:00:11;;;;;;;38.92;3.70;;;;;;;23.26;42.17;97964.88;5066526;28;20400;-64
2021/04/26 14:02:37;;;;;;;13.55;2.92;;;;;;;23.31;42.68;97947.50;5065629;28;20236;-57
2021/04/26 14:05:05;;;;;;;14.32;3.08;;;;;;;23.32;41.96;97946.50;5060892;28;20254;-57
2021/04/26 14:07:31;;;;;;;15.52;2.60;;;;;;;23.29;42.12;97942.34;5065916;28;20209;-60
2021/04/26 14:09:58;;;;;;;20.05;3.20;;;;;;;23.19;42.82;97939.91;5072496;28;20638;-56
2021/04/26 14:12:24;;;;;;;20.95;3.13;;;;;;;23.20;42.88;97935.41;5065972;28;20263;-61
2021/04/26 14:14:51;;;;;;;12.15;2.60;;;;;;;23.21;41.73;97929.91;5065568;28;20253;-60
2021/04/26 14:17:20;;;;;;;8.82;2.00;;;;;;;23.17;41.95;97928.59;5067662;28;20199;-63
2021/04/26 14:19:46;;;;;;;17.52;2.28;;;;;;;23.17;42.29;97922.44;5063842;28;20239;-62
2021/04/26 14:22:13;;;;;;;12.60;2.50;;;;;;;23.14;41.68;97912.97;5068512;28;20284;-59
2021/04/26 14:24:42;;;;;;;8.23;2.00;;;;;;;23.11;41.62;97912.50;5068917;28;20312;-56
2021/04/26 14:27:08;;;;;;;13.48;2.20;;;;;;;23.11;41.86;97915.16;5065289;28;20198;-59
2021/04/26 14:29:34;;;;;;;9.73;1.83;;;;;;;23.11;41.35;97915.97;5071235;28;20722;-59
2021/04/26 14:32:02;;;;;;;8.82;2.08;;;;;;;23.12;40.97;97919.50;5069715;28;20621;-62
2021/04/26 14:34:28;;;;;;;6.85;2.00;;;;;;;23.17;41.96;97906.44;5067832;28;20222;-53
2021/04/26 14:36:54;;;;;;;3.40;1.80;;;;;;;23.14;41.12;97910.28;5065042;28;20297;-62
2021/04/26 14:39:20;;;;;;;3.47;1.77;;;;;;;23.17;41.14;97906.44;5070851;28;20292;-61
2021/04/26 14:41:49;;;;;;;4.53;1.85;;;;;;;23.17;41.28;97898.44;5072991;28;20298;-61
2021/04/26 14:44:16;;;;;;;8.38;2.03;;;;;;;23.19;41.86;97896.44;5074284;28;20253;-60
2021/04/26 14:46:42;;;;;;;9.77;1.98;;;;;;;23.19;41.48;97889.25;5065834;28;20229;-63
2021/04/26 14:49:09;;;;;;;5.80;1.80;;;;;;;23.20;41.43;97890.91;5071272;28;20540;-60
2021/04/26 14:51:35;;;;;;;6.40;2.08;;;;;;;23.19;41.27;97897.25;5067921;28;20763;-60
2021/04/26 14:54:01;;;;;;;6.57;2.17;;;;;;;23.23;41.29;97893.25;5071991;28;20279;-62
2021/04/26 14:56:28;;;;;;;7.05;1.95;;;;;;;23.23;42.26;97881.72;5064695;28;20229;-58
2021/04/26 14:58:54;;;;;;;6.97;2.25;;;;;;;23.31;41.13;97888.84;5063147;28;20345;-63
2021/04/26 15:01:20;;;;;;;5.20;1.80;;;;;;;23.30;41.86;97884.50;5064566;28;20264;-62
2021/04/26 15:03:46;;;;;;;8.63;1.70;;;;;;;23.27;41.66;97886.53;5062389;28;20254;-61
2021/04/26 15:06:18;;;;;;;7.57;1.90;;;;;;;23.35;41.73;97882.97;5065784;28;21055;-58
2021/04/26 15:08:46;;;;;;;8.82;1.80;;;;;;;23.37;41.62;97878.28;5060437;28;20202;-60
2021/04/26 15:11:12;;;;;;;9.73;1.50;;;;;;;23.43;41.51;97874.06;5068749;28;20294;-62
2021/04/26 15:13:39;;;;;;;7.00;1.75;;;;;;;23.44;42.07;97875.72;5064279;28;20469;-58
2021/04/26 15:16:06;;;;;;;4.50;1.73;;;;;;;23.42;42.46;97873.22;5067015;28;20309;-58
2021/04/26 15:18:32;;;;;;;8.10;1.75;;;;;;;23.43;43.17;97877.56;5066392;28;20733;-60
2021/04/26 15:20:58;;;;;;;10.95;1.95;;;;;;;23.43;42.65;97879.38;5063257;28;20285;-62
2021/04/26 15:23:26;;;;;;;6.43;1.85;;;;;;;23.46;42.42;97868.34;5064497;28;20254;-58
2021/04/26 15:25:52;;;;;;;5.35;1.67;;;;;;;23.50;42.66;97858.16;5067391;28;20213;-58
2021/04/26 15:28:19;;;;;;;10.40;2.58;;;;;;;23.51;42.48;97852.63;5072662;28;20202;-60
2021/04/26 15:30:47;;;;;;;13.10;2.00;;;;;;;23.54;44.03;97860.28;5064845;28;20199;-59
2021/04/26 15:33:15;;;;;;;10.48;1.90;;;;;;;23.54;44.03;97848.78;5065940;28;20246;-57
2021/04/26 15:35:42;;;;;;;7.43;1.63;;;;;;;23.50;43.59;97850.16;5062281;28;20306;-56
2021/04/26 15:38:09;;;;;;;6.40;1.80;;;;;;;23.51;44.18;97854.47;5071365;28;20222;-60
2021/04/26 15:40:49;;;;;;;7.68;1.50;;;;;;;23.51;43.75;97849.16;5072712;28;21537;-60
2021/04/26 15:43:16;;;;;;;5.25;1.70;;;;;;;23.49;43.64;97845.84;5066631;28;20233;-58
2021/04/26 15:45:44;;;;;;;8.30;1.63;;;;;;;23.51;43.75;97847.28;5067516;28;20628;-56
2021/04/26 15:48:15;;;;;;;4.88;1.42;;;;;;;23.45;43.21;97850.72;5060791;28;20286;-60
2021/04/26 15:50:42;;;;;;;6.57;1.63;;;;;;;23.44;43.34;97854.38;5064837;28;20245;-56
2021/04/26 15:53:09;;;;;;;8.43;2.38;;;;;;;23.40;44.17;97843.25;5068968;28;20214;-53
2021/04/26 15:55:37;;;;;;;13.73;3.50;;;;;;;23.42;44.65;97848.41;5055041;28;20275;-57
2021/04/26 15:58:04;;;;;;;18.63;4.70;;;;;;;23.40;43.67;97842.44;5070448;28;20265;-56
2021/04/26 16:00:31;;;;;;;16.40;4.38;;;;;;;23.40;43.65;97839.75;5058634;28;20210;-59
2021/04/26 16:02:59;;;;;;;23.67;5.20;;;;;;;23.42;43.79;97837.72;5067856;28;20297;-57
2021/04/26 16:05:26;;;;;;;17.65;4.75;;;;;;;23.41;43.35;97844.88;5064931;28;20203;-56
2021/04/26 16:07:53;;;;;;;19.73;5.50;;;;;;;23.42;43.11;97840.41;5065731;28;20820;-55
2021/04/26 16:10:20;;;;;;;15.10;5.28;;;;;;;23.43;42.98;97831.38;5068928;28;20727;-56
2021/04/26 16:12:48;;;;;;;18.35;5.80;;;;;;;23.44;44.01;97831.19;5065374;28;20279;-55
2021/04/26 16:15:14;;;;;;;18.15;5.57;;;;;;;23.54;43.10;97832.78;5068621;28;20256;-62
2021/04/26 16:17:41;;;;;;;15.40;5.50;;;;;;;23.60;43.74;97827.53;5067873;28;20305;-65
2021/04/26 16:20:09;;;;;;;33.65;7.72;;;;;;;23.65;44.64;97825.16;5068426;28;20251;-61
2021/04/26 16:22:35;;;;;;;21.10;6.82;;;;;;;23.71;44.31;97828.09;5068362;28;20226;-59
2021/04/26 16:25:01;;;;;;;19.13;5.88;;;;;;;23.72;44.49;97829.78;5075921;28;20377;-58
2021/04/26 16:27:30;;;;;;;17.85;6.85;;;;;;;23.74;43.63;97825.88;5070494;28;20698;-61
2021/04/26 16:29:58;;;;;;;23.58;6.72;;;;;;;23.78;46.28;97826.34;5073321;28;20198;-60
2021/04/26 16:32:24;;;;;;;16.65;5.70;;;;;;;23.78;44.30;97829.84;5063060;28;20286;-59
2021/04/26 16:34:51;;;;;;;19.92;6.38;;;;;;;23.78;46.00;97827.19;5063873;28;20234;-61
2021/04/26 16:37:17;;;;;;;13.57;5.30;;;;;;;23.78;44.69;97826.34;5064036;28;20317;-57
2021/04/26 16:39:44;;;;;;;17.65;5.75;;;;;;;23.76;44.00;97826.53;5063408;28;20320;-57
2021/04/26 16:42:10;;;;;;;19.05;5.80;;;;;;;23.79;46.16;97822.66;5061590;28;20201;-58
2021/04/26 16:44:36;;;;;;;17.50;5.30;;;;;;;23.74;44.69;97823.22;5068382;28;20663;-60
2021/04/26 16:47:05;;;;;;;15.23;5.18;;;;;;;23.74;44.34;97817.06;5064471;28;20289;-59
2021/04/26 16:49:31;;;;;;;13.60;5.03;;;;;;;23.76;45.11;97815.03;5065398;28;20218;-59
2021/04/26 16:51:58;;;;;;;12.38;4.80;;;;;;;23.74;44.71;97809.06;5062324;28;20644;-59
2021/04/26 16:54:26;;;;;;;13.93;4.93;;;;;;;23.68;46.19;97804.44;5064312;28;20371;-57
2021/04/26 16:56:53;;;;;;;15.27;5.38;;;;;;;23.72;45.92;97803.06;5060836;28;20626;-58
2021/04/26 16:59:19;;;;;;;22.38;4.90;;;;;;;23.71;44.87;97801.41;5058846;28;20963;-59
2021/04/26 17:01:45;;;;;;;15.43;4.72;;;;;;;23.70;45.28;97811.25;5064931;28;20203;-54
2021/04/26 17:04:13;;;;;;;13.05;4.20;;;;;;;23.71;45.60;97806.75;5062464;28;20237;-58
2021/04/26 17:06:40;;;;;;;18.10;5.13;;;;;;;23.76;45.72;97809.69;5068869;28;20628;-60
2021/04/26 17:09:07;;;;;;;13.88;4.38;;;;;;;23.79;44.97;97804.00;5067965;28;20723;-59
2021/04/26 17:11:35;;;;;;;12.90;3.90;;;;;;;23.76;45.55;97799.84;5068988;28;20289;-60
2021/04/26 17:14:01;;;;;;;12.88;4.20;;;;;;;23.77;45.42;97806.03;5068870;28;20300;-59
2021/04/26 17:16:28;;;;;;;9.35;3.78;;;;;;;23.82;44.83;97803.66;5067677;28;20292;-60